createdAt,value
2022-12-27T00:02:22.483Z,2.87
2022-12-27T00:04:50.144Z,2.86
2022-12-27T00:07:16.845Z,2.87
2022-12-27T00:09:43.425Z,2.85
2022-12-27T00:12:11.101Z,2.72
2022-12-27T00:14:37.712Z,2.82
2022-12-27T00:17:04.423Z,2.90
2022-12-27T00:19:31.033Z,2.85
2022-12-27T00:21:57.790Z,2.74
2022-12-27T00:24:24.400Z,2.74
2022-12-27T00:26:51.074Z,2.77
2022-12-27T00:29:17.646Z,2.70
2022-12-27T00:31:44.279Z,2.69
2022-12-27T00:34:11.234Z,2.71
2022-12-27T00:36:37.907Z,2.76
2022-12-27T00:39:05.440Z,2.78
2022-12-27T00:41:32.501Z,2.76
2022-12-27T00:43:59.093Z,2.76
2022-12-27T00:46:25.686Z,2.74
2022-12-27T00:48:52.598Z,2.69
2022-12-27T00:51:22.727Z,2.70
2022-12-27T00:53:50.661Z,2.63
2022-12-27T00:56:20.432Z,2.56
2022-12-27T00:58:47.643Z,2.71
2022-12-27T01:01:18.128Z,2.68
2022-12-27T01:03:45.011Z,2.64
2022-12-27T01:06:17.506Z,2.61
2022-12-27T01:08:45.081Z,2.35
2022-12-27T01:11:12.737Z,2.26
2022-12-27T01:13:40.149Z,2.14
2022-12-27T01:16:18.324Z,2.10
2022-12-27T01:18:45.072Z,2.14
2022-12-27T01:21:13.699Z,2.09
2022-12-27T01:23:41.327Z,2.07
2022-12-27T01:26:12.339Z,2.09
2022-12-27T01:28:38.976Z,2.17
2022-12-27T01:31:11.251Z,2.06
2022-12-27T01:33:38.129Z,1.97
2022-12-27T01:36:12.736Z,2.04
2022-12-27T01:38:42.621Z,1.95
2022-12-27T01:41:54.290Z,1.94
2022-12-27T01:44:52.224Z,1.84
2022-12-27T01:47:36.793Z,1.76
2022-12-27T01:50:12.547Z,1.74
2022-12-27T01:52:54.189Z,1.70
2022-12-27T01:55:56.060Z,1.66
2022-12-27T01:58:28.504Z,1.63
2022-12-27T02:00:56.607Z,1.62
2022-12-27T02:03:35.093Z,1.64
2022-12-27T02:06:04.478Z,1.68
2022-12-27T02:08:55.439Z,1.74
2022-12-27T02:11:46.711Z,1.76
2022-12-27T02:14:15.955Z,1.82
2022-12-27T02:16:42.700Z,1.87
2022-12-27T02:19:29.007Z,1.93
2022-12-27T02:22:13.619Z,1.96
2022-12-27T02:25:11.089Z,2.03
2022-12-27T02:28:00.300Z,2.02
2022-12-27T02:30:29.139Z,2.03
2022-12-27T02:33:04.939Z,2.03
2022-12-27T02:35:36.793Z,2.10
2022-12-27T02:38:13.682Z,2.04
2022-12-27T02:41:02.720Z,1.99
2022-12-27T02:43:49.070Z,1.93
2022-12-27T02:46:41.470Z,1.92
2022-12-27T02:49:53.101Z,1.79
2022-12-27T02:53:05.184Z,1.74
2022-12-27T02:56:25.825Z,1.64
2022-12-27T02:59:59.465Z,1.55
2022-12-27T03:03:17.278Z,1.43
2022-12-27T03:06:17.513Z,1.37
2022-12-27T03:09:03.591Z,1.28
2022-12-27T03:11:56.848Z,1.24
2022-12-27T03:14:51.424Z,1.13
2022-12-27T03:17:34.711Z,1.07
2022-12-27T03:20:23.362Z,1.03
2022-12-27T03:23:11.823Z,1.03
2022-12-27T03:25:42.264Z,0.92
2022-12-27T03:28:44.492Z,0.88
2022-12-27T03:31:57.937Z,0.91
2022-12-27T03:34:38.177Z,0.79
2022-12-27T03:37:33.246Z,0.90
2022-12-27T03:40:18.770Z,0.82
2022-12-27T03:43:12.735Z,0.77
2022-12-27T03:46:16.156Z,0.69
2022-12-27T03:49:03.126Z,0.54
2022-12-27T03:51:35.167Z,0.46
2022-12-27T03:54:10.655Z,0.42
2022-12-27T03:56:38.768Z,0.56
2022-12-27T03:59:06.439Z,0.49
2022-12-27T04:01:33.081Z,0.38
2022-12-27T04:03:59.696Z,0.34
2022-12-27T04:06:26.291Z,0.32
2022-12-27T04:09:11.364Z,0.28
2022-12-27T04:11:56.498Z,0.29
2022-12-27T04:14:41.325Z,0.23
2022-12-27T04:17:26.483Z,0.35
2022-12-27T04:20:11.505Z,0.33
2022-12-27T04:22:56.751Z,0.27
2022-12-27T04:25:41.925Z,0.29
2022-12-27T04:28:27.266Z,0.27
2022-12-27T04:31:12.635Z,0.26
2022-12-27T04:33:57.755Z,0.31
2022-12-27T04:36:24.370Z,0.38
2022-12-27T04:38:50.933Z,0.47
2022-12-27T04:41:36.384Z,0.56
2022-12-27T04:44:21.486Z,0.65
2022-12-27T04:47:06.827Z,0.77
2022-12-27T04:49:53.064Z,0.90
2022-12-27T04:52:40.780Z,0.97
2022-12-27T04:55:20.092Z,0.99
2022-12-27T04:57:46.899Z,0.95
2022-12-27T05:00:33.545Z,0.97
2022-12-27T05:03:02.596Z,0.95
2022-12-27T05:05:29.427Z,0.84
2022-12-27T05:08:16.963Z,0.79
2022-12-27T05:11:02.731Z,0.66
2022-12-27T05:13:47.831Z,0.58
2022-12-27T05:16:15.184Z,0.45
2022-12-27T05:18:42.030Z,0.39
2022-12-27T05:21:08.648Z,0.36
2022-12-27T05:23:54.049Z,0.31
2022-12-27T05:26:26.657Z,0.24
2022-12-27T05:28:55.561Z,0.25
2022-12-27T05:31:24.150Z,0.23
2022-12-27T05:33:52.165Z,0.25
2022-12-27T05:36:19.666Z,0.20
2022-12-27T05:38:46.593Z,0.26
2022-12-27T05:41:13.312Z,0.36
2022-12-27T05:43:40.389Z,0.39
2022-12-27T05:46:15.672Z,0.53
2022-12-27T05:48:42.527Z,0.61
2022-12-27T05:51:10.591Z,0.54
2022-12-27T05:53:37.292Z,0.52
2022-12-27T05:56:04.265Z,0.37
2022-12-27T05:58:31.434Z,0.29
2022-12-27T06:00:59.924Z,0.26
2022-12-27T06:03:26.789Z,0.28
2022-12-27T06:06:00.891Z,0.27
2022-12-27T06:08:27.763Z,0.20
2022-12-27T06:11:11.630Z,0.15
2022-12-27T06:13:39.557Z,0.07
2022-12-27T06:16:08.294Z,0.09
2022-12-27T06:18:36.638Z,0.06
2022-12-27T06:21:13.148Z,0.04
2022-12-27T06:23:41.491Z,0.17
2022-12-27T06:26:16.337Z,0.13
2022-12-27T06:28:43.225Z,0.10
2022-12-27T06:31:10.262Z,0.13
2022-12-27T06:33:36.863Z,0.09
2022-12-27T06:36:08.033Z,0.05
2022-12-27T06:38:34.751Z,0.01
2022-12-27T06:41:06.249Z,-0.04
2022-12-27T06:43:33.697Z,-0.10
2022-12-27T06:46:04.052Z,-0.19
2022-12-27T06:48:31.015Z,-0.27
2022-12-27T06:50:57.687Z,-0.31
2022-12-27T06:53:24.322Z,-0.42
2022-12-27T06:55:50.986Z,-0.47
2022-12-27T06:58:17.572Z,-0.48
2022-12-27T07:00:44.269Z,-0.46
2022-12-27T07:03:10.926Z,-0.39
2022-12-27T07:05:38.745Z,-0.33
2022-12-27T07:08:05.530Z,-0.32
2022-12-27T07:10:32.194Z,-0.32
2022-12-27T07:12:59.151Z,-0.22
2022-12-27T07:15:25.743Z,-0.19
2022-12-27T07:17:52.329Z,-0.20
2022-12-27T07:20:18.933Z,-0.14
2022-12-27T07:22:45.571Z,-0.18
2022-12-27T07:25:12.271Z,-0.19
2022-12-27T07:27:38.864Z,-0.34
2022-12-27T07:30:06.429Z,-0.19
2022-12-27T07:32:33.013Z,0.16
2022-12-27T07:34:59.847Z,0.27
2022-12-27T07:37:26.460Z,0.41
2022-12-27T07:39:53.127Z,0.68
2022-12-27T07:42:19.794Z,0.79
2022-12-27T07:44:48.242Z,0.92
2022-12-27T07:47:14.859Z,1.15
2022-12-27T07:49:41.485Z,1.16
2022-12-27T07:52:08.050Z,1.25
2022-12-27T07:54:34.700Z,1.36
2022-12-27T07:57:01.310Z,1.38
2022-12-27T07:59:27.919Z,1.32
2022-12-27T08:02:06.565Z,1.39
2022-12-27T08:04:37.074Z,1.41
2022-12-27T08:07:05.959Z,1.77
2022-12-27T08:09:35.448Z,2.03
2022-12-27T08:12:02.180Z,2.09
2022-12-27T08:14:29.088Z,2.06
2022-12-27T08:16:59.318Z,2.36
2022-12-27T08:19:25.959Z,2.78
2022-12-27T08:21:52.524Z,3.12
2022-12-27T08:24:19.138Z,3.32
2022-12-27T08:26:45.763Z,3.27
2022-12-27T08:29:12.395Z,3.35
2022-12-27T08:31:39.289Z,3.74
2022-12-27T08:34:05.921Z,3.77
2022-12-27T08:39:19.904Z,4.12
2022-12-27T08:41:46.903Z,4.75
2022-12-27T08:44:13.989Z,5.74
2022-12-27T08:46:40.656Z,6.57
2022-12-27T08:49:07.431Z,8.13
2022-12-27T08:51:40.627Z,8.67
2022-12-27T08:54:08.268Z,8.82
2022-12-27T08:56:35.068Z,9.39
2022-12-27T08:59:02.165Z,10.16
2022-12-27T09:01:29.100Z,11.55
2022-12-27T09:03:55.792Z,11.25
2022-12-27T09:06:24.234Z,12.53
2022-12-27T09:08:51.996Z,13.46
2022-12-27T09:11:21.361Z,14.24
2022-12-27T09:13:48.051Z,14.19
2022-12-27T09:16:20.647Z,16.20
2022-12-27T09:18:49.152Z,17.58
2022-12-27T09:21:19.520Z,18.72
2022-12-27T09:23:47.173Z,19.45
2022-12-27T09:26:15.977Z,20.21
2022-12-27T09:28:42.822Z,21.04
2022-12-27T09:31:11.569Z,21.46
2022-12-27T09:33:38.432Z,21.52
2022-12-27T09:36:35.573Z,22.63
2022-12-27T09:39:02.152Z,22.81
2022-12-27T09:42:45.888Z,22.92
2022-12-27T09:44:56.775Z,22.65
2022-12-27T09:47:28.655Z,23.30
2022-12-27T09:50:03.354Z,23.18
2022-12-27T09:52:37.230Z,24.18
2022-12-27T09:55:20.731Z,24.55
2022-12-27T09:57:48.433Z,24.63
2022-12-27T10:00:32.374Z,24.01
2022-12-27T10:03:05.821Z,23.03
2022-12-27T10:05:37.304Z,22.70
2022-12-27T10:08:19.006Z,22.48
2022-12-27T10:11:06.677Z,20.49
2022-12-27T10:13:54.323Z,18.47
2022-12-27T10:16:50.571Z,18.59
2022-12-27T10:19:45.947Z,18.75
2022-12-27T10:22:15.343Z,19.48
2022-12-27T10:24:50.860Z,19.59
2022-12-27T10:27:28.616Z,19.62
2022-12-27T10:29:57.507Z,18.19
2022-12-27T10:32:24.509Z,18.64
2022-12-27T10:35:04.627Z,18.71
2022-12-27T10:37:31.407Z,17.98
2022-12-27T10:40:20.965Z,18.97
2022-12-27T10:43:09.897Z,19.83
2022-12-27T10:45:39.266Z,18.64
2022-12-27T10:48:28.884Z,19.68
2022-12-27T10:51:06.061Z,21.16
2022-12-27T10:53:48.213Z,22.50
2022-12-27T10:56:20.830Z,21.27
2022-12-27T10:58:58.152Z,22.48
2022-12-27T11:01:29.572Z,23.16
2022-12-27T11:04:20.701Z,24.06
2022-12-27T11:07:18.245Z,23.71
2022-12-27T11:09:50.853Z,23.21
2022-12-27T11:12:19.731Z,22.23
2022-12-27T11:15:13.779Z,20.48
2022-12-27T11:17:43.837Z,20.63
2022-12-27T11:20:31.825Z,18.81
2022-12-27T11:23:01.260Z,17.80
2022-12-27T11:25:29.262Z,16.89
2022-12-27T11:28:01.311Z,17.05
2022-12-27T11:30:36.083Z,15.53
2022-12-27T11:33:15.070Z,14.48
2022-12-27T11:35:51.483Z,13.19
2022-12-27T11:38:28.115Z,12.80
2022-12-27T11:41:27.699Z,12.30
2022-12-27T11:44:13.304Z,12.02
2022-12-27T11:46:59.424Z,11.77
2022-12-27T11:49:35.831Z,11.96
2022-12-27T11:52:16.588Z,12.35
2022-12-27T11:54:52.055Z,12.97
2022-12-27T11:57:47.755Z,15.28
2022-12-27T12:00:42.546Z,16.49
2022-12-27T12:03:30.880Z,17.94
2022-12-27T12:05:57.499Z,19.06
2022-12-27T12:08:49.050Z,20.38
2022-12-27T12:11:30.525Z,22.22
2022-12-27T12:14:21.866Z,22.63
2022-12-27T12:17:36.086Z,22.35
2022-12-27T12:20:30.659Z,23.28
2022-12-27T12:23:12.881Z,23.42
2022-12-27T12:25:49.495Z,23.95
2022-12-27T12:28:59.560Z,24.20
2022-12-27T12:31:39.027Z,23.91
2022-12-27T12:34:17.611Z,25.15
2022-12-27T12:36:49.164Z,25.46
2022-12-27T12:39:47.045Z,23.64
2022-12-27T12:42:45.479Z,22.68
2022-12-27T12:46:05.213Z,22.20
2022-12-27T12:49:05.805Z,21.68
2022-12-27T12:52:00.195Z,20.88
2022-12-27T12:54:51.770Z,20.13
2022-12-27T12:57:42.563Z,19.86
2022-12-27T13:00:15.229Z,19.30
2022-12-27T13:03:09.879Z,18.64
2022-12-27T13:05:57.885Z,19.24
2022-12-27T13:08:38.946Z,19.29
2022-12-27T13:11:41.991Z,15.06
2022-12-27T13:14:36.251Z,14.96
2022-12-27T13:17:10.891Z,14.65
2022-12-27T13:19:37.459Z,13.93
2022-12-27T13:22:25.599Z,13.06
2022-12-27T13:25:07.377Z,12.62
2022-12-27T13:28:16.815Z,12.09
2022-12-27T13:30:58.844Z,11.89
2022-12-27T13:34:08.356Z,11.50
2022-12-27T13:36:51.664Z,11.06
2022-12-27T13:39:49.434Z,10.85
2022-12-27T13:42:40.652Z,10.86
2022-12-27T13:45:07.199Z,10.89
2022-12-27T13:47:58.795Z,10.40
2022-12-27T13:50:40.477Z,10.39
2022-12-27T13:53:31.738Z,10.42
2022-12-27T13:56:52.760Z,10.30
2022-12-27T13:59:24.576Z,10.06
2022-12-27T14:02:09.278Z,9.96
2022-12-27T14:04:49.969Z,9.88
2022-12-27T14:07:43.906Z,9.67
2022-12-27T14:10:27.386Z,9.53
2022-12-27T14:12:59.932Z,9.43
2022-12-27T14:15:48.244Z,9.28
2022-12-27T14:18:59.516Z,9.21
2022-12-27T14:22:00.086Z,9.14
2022-12-27T14:24:55.911Z,9.24
2022-12-27T14:27:43.972Z,9.24
2022-12-27T14:30:13.248Z,9.18
2022-12-27T14:33:02.842Z,9.10
2022-12-27T14:35:53.878Z,8.84
2022-12-27T14:38:48.151Z,8.70
2022-12-27T14:41:39.385Z,8.60
2022-12-27T14:44:17.943Z,8.37
2022-12-27T14:47:17.324Z,8.19
2022-12-27T14:50:02.457Z,8.07
2022-12-27T14:52:47.176Z,7.94
2022-12-27T14:55:26.198Z,7.81
2022-12-27T14:57:55.484Z,7.71
2022-12-27T15:00:28.163Z,7.61
2022-12-27T15:03:19.684Z,7.49
2022-12-27T15:06:04.323Z,7.41
2022-12-27T15:08:50.748Z,7.31
2022-12-27T15:11:17.294Z,7.22
2022-12-27T15:14:11.357Z,7.17
2022-12-27T15:17:16.163Z,7.08
2022-12-27T15:20:06.032Z,6.97
2022-12-27T15:22:50.306Z,7.01
2022-12-27T15:25:54.339Z,6.85
2022-12-27T15:29:18.755Z,6.74
2022-12-27T15:31:45.442Z,6.60
2022-12-27T15:34:30.467Z,6.48
2022-12-27T15:36:57.329Z,6.43
2022-12-27T15:39:33.117Z,6.33
2022-12-27T15:42:22.188Z,6.30
2022-12-27T15:45:18.626Z,6.20
2022-12-27T15:48:28.147Z,6.06
2022-12-27T15:51:11.337Z,5.96
2022-12-27T15:53:45.139Z,5.83
2022-12-27T15:56:34.987Z,5.76
2022-12-27T15:59:35.582Z,5.65
2022-12-27T16:02:33.404Z,5.84
2022-12-27T16:05:09.041Z,5.70
2022-12-27T16:07:47.227Z,5.73
2022-12-27T16:10:25.802Z,5.75
2022-12-27T16:12:54.930Z,5.65
2022-12-27T16:15:43.441Z,5.52
2022-12-27T16:18:19.066Z,5.42
2022-12-27T16:20:57.321Z,5.38
2022-12-27T16:23:36.659Z,5.34
2022-12-27T16:26:07.128Z,5.32
2022-12-27T16:28:35.701Z,5.19
2022-12-27T16:31:07.739Z,5.16
2022-12-27T16:33:37.747Z,5.11
2022-12-27T16:36:25.514Z,5.03
2022-12-27T16:39:12.301Z,4.97
2022-12-27T16:41:54.028Z,4.94
2022-12-27T16:44:38.613Z,4.88
2022-12-27T16:47:29.847Z,4.89
2022-12-27T16:50:22.631Z,4.85
2022-12-27T16:53:08.725Z,4.76
2022-12-27T16:55:47.617Z,4.65
2022-12-27T16:58:36.726Z,4.55
2022-12-27T17:01:18.351Z,4.48
2022-12-27T17:03:48.349Z,4.39
2022-12-27T17:06:31.866Z,4.34
2022-12-27T17:09:08.739Z,4.30
2022-12-27T17:12:02.569Z,4.22
2022-12-27T17:14:35.826Z,4.11
2022-12-27T17:17:23.150Z,4.00
2022-12-27T17:19:59.945Z,3.98
2022-12-27T17:22:34.305Z,3.96
2022-12-27T17:25:02.846Z,3.82
2022-12-27T17:27:59.847Z,3.74
2022-12-27T17:30:39.735Z,3.69
2022-12-27T17:33:14.917Z,3.63
2022-12-27T17:35:52.265Z,3.56
2022-12-27T17:38:56.009Z,3.49
2022-12-27T17:41:47.029Z,3.49
2022-12-27T17:44:37.903Z,3.44
2022-12-27T17:47:25.996Z,3.34
2022-12-27T17:50:00.219Z,3.27
2022-12-27T17:52:45.342Z,3.15
2022-12-27T17:55:36.559Z,3.04
2022-12-27T17:58:06.684Z,3.02
2022-12-27T18:00:36.630Z,2.96
2022-12-27T18:03:09.008Z,2.78
2022-12-27T18:05:41.438Z,2.69
2022-12-27T18:08:19.268Z,2.58
2022-12-27T18:10:45.940Z,2.56
2022-12-27T18:13:18.467Z,2.50
2022-12-27T18:15:47.074Z,2.53
2022-12-27T18:18:28.369Z,2.52
2022-12-27T18:20:57.789Z,2.43
2022-12-27T18:23:24.434Z,2.39
2022-12-27T18:25:55.308Z,2.30
2022-12-27T18:28:28.711Z,2.23
2022-12-27T18:31:17.434Z,2.25
2022-12-27T18:33:59.034Z,2.21
2022-12-27T18:36:46.971Z,2.21
2022-12-27T18:39:48.970Z,2.11
2022-12-27T18:42:26.771Z,1.96
2022-12-27T18:45:04.759Z,1.94
2022-12-27T18:47:46.313Z,1.90
2022-12-27T18:50:18.764Z,1.90
2022-12-27T18:52:49.819Z,1.85
2022-12-27T18:55:27.448Z,1.82
2022-12-27T18:58:20.954Z,1.84
2022-12-27T19:00:55.185Z,1.81
2022-12-27T19:03:21.961Z,1.81
2022-12-27T19:05:59.879Z,1.80
2022-12-27T19:08:54.288Z,1.82
2022-12-27T19:11:28.420Z,1.84
2022-12-27T19:14:00.310Z,1.88
2022-12-27T19:16:30.099Z,1.86
2022-12-27T19:19:07.762Z,1.85
2022-12-27T19:21:37.714Z,1.83
2022-12-27T19:24:19.730Z,1.80
2022-12-27T19:26:46.563Z,1.80
2022-12-27T19:29:22.907Z,1.78
2022-12-27T19:31:56.860Z,1.78
2022-12-27T19:34:27.126Z,1.77
2022-12-27T19:36:55.206Z,1.76
2022-12-27T19:39:25.619Z,1.71
2022-12-27T19:41:53.053Z,1.69
2022-12-27T19:44:27.645Z,1.71
2022-12-27T19:46:54.231Z,1.72
2022-12-27T19:49:41.896Z,1.71
2022-12-27T19:52:18.123Z,1.73
2022-12-27T19:54:45.551Z,1.68
2022-12-27T19:57:14.816Z,1.67
2022-12-27T19:59:41.772Z,1.65
2022-12-27T20:02:08.823Z,1.61
2022-12-27T20:04:35.827Z,1.52
2022-12-27T20:07:03.230Z,1.50
2022-12-27T20:09:29.935Z,1.53
2022-12-27T20:11:56.593Z,1.47
2022-12-27T20:14:23.170Z,1.52
2022-12-27T20:16:49.891Z,1.45
2022-12-27T20:19:18.030Z,1.46
2022-12-27T20:21:44.763Z,1.47
2022-12-27T20:24:12.523Z,1.50
2022-12-27T20:26:39.779Z,1.46
2022-12-27T20:29:06.390Z,1.44
2022-12-27T20:31:33.092Z,1.50
2022-12-27T20:33:59.730Z,1.52
2022-12-27T20:36:26.376Z,1.49
2022-12-27T20:38:53.001Z,1.45
2022-12-27T20:41:21.489Z,1.50
2022-12-27T20:43:48.158Z,1.45
2022-12-27T20:46:17.479Z,1.45
2022-12-27T20:48:45.494Z,1.45
2022-12-27T20:51:17.597Z,1.44
2022-12-27T20:53:46.725Z,1.41
2022-12-27T20:56:14.076Z,1.40
2022-12-27T20:58:40.689Z,1.43
2022-12-27T21:01:15.924Z,1.44
2022-12-27T21:03:43.587Z,1.46
2022-12-27T21:06:13.545Z,1.47
2022-12-27T21:08:46.546Z,1.45
2022-12-27T21:11:22.678Z,1.41
2022-12-27T21:13:49.575Z,1.41
2022-12-27T21:16:19.221Z,1.41
2022-12-27T21:18:46.457Z,1.39
2022-12-27T21:21:16.080Z,1.34
2022-12-27T21:23:44.905Z,1.42
2022-12-27T21:26:17.339Z,1.38
2022-12-27T21:28:44.709Z,1.37
2022-12-27T21:31:15.444Z,1.35
2022-12-27T21:33:42.502Z,1.33
2022-12-27T21:36:13.711Z,1.36
2022-12-27T21:38:40.890Z,1.28
2022-12-27T21:41:14.172Z,1.30
2022-12-27T21:43:41.460Z,1.30
2022-12-27T21:46:20.323Z,1.27
2022-12-27T21:48:48.141Z,1.31
2022-12-27T21:51:17.335Z,1.27
2022-12-27T21:53:44.893Z,1.31
2022-12-27T21:56:13.488Z,1.29
2022-12-27T21:58:41.395Z,1.24
2022-12-27T22:01:16.250Z,1.22
2022-12-27T22:03:45.413Z,1.21
2022-12-27T22:06:17.727Z,1.23
2022-12-27T22:08:46.570Z,1.21
2022-12-27T22:11:14.128Z,1.25
2022-12-27T22:13:41.613Z,1.25
2022-12-27T22:16:12.770Z,1.20
2022-12-27T22:18:43.029Z,1.16
2022-12-27T22:21:14.005Z,1.17
2022-12-27T22:23:43.580Z,1.16
2022-12-27T22:26:12.948Z,1.19
2022-12-27T22:28:40.230Z,1.24
2022-12-27T22:31:17.949Z,1.23
2022-12-27T22:33:45.202Z,1.29
2022-12-27T22:36:14.846Z,1.22
2022-12-27T22:38:41.766Z,1.21
2022-12-27T22:41:12.664Z,1.19
2022-12-27T22:43:40.115Z,1.12
2022-12-27T22:46:11.740Z,1.12
2022-12-27T22:48:39.383Z,1.12
2022-12-27T22:51:10.633Z,1.15
2022-12-27T22:53:37.272Z,1.16
2022-12-27T22:56:04.263Z,1.13
2022-12-27T22:58:31.748Z,1.08
2022-12-27T23:00:58.986Z,1.10
2022-12-27T23:03:25.575Z,1.15
2022-12-27T23:06:01.053Z,1.24
2022-12-27T23:08:27.665Z,1.22
2022-12-27T23:10:54.261Z,1.28
2022-12-27T23:13:22.982Z,1.35
2022-12-27T23:15:57.574Z,1.38
2022-12-27T23:18:24.417Z,1.42
2022-12-27T23:21:21.432Z,1.46
2022-12-27T23:23:37.943Z,1.57
2022-12-27T23:26:10.872Z,1.58
2022-12-27T23:28:38.912Z,1.56
2022-12-27T23:31:06.933Z,1.58
2022-12-27T23:33:33.986Z,1.67
2022-12-27T23:36:00.876Z,1.74
2022-12-27T23:38:27.557Z,1.82
2022-12-27T23:40:57.850Z,1.84
2022-12-27T23:46:27.335Z,1.90
2022-12-27T23:48:55.163Z,1.89
2022-12-27T23:51:21.957Z,1.87
2022-12-27T23:53:48.644Z,1.89
2022-12-27T23:56:18.896Z,1.77
2022-12-27T23:58:46.577Z,1.71
